Time;durP1;ratioP1;P1;durP2;ratioP2;P2;SDS_P1;SDS_P2;PMS_P1;PMS_P2;Temp;Humidity;BMP_temperature;BMP_pressure;BME280_temperature;BME280_humidity;BME280_pressure;Samples;Min_cycle;Max_cycle;Signal;HPM_P1;HPM_P2
2023/06/28 00:01:22;;;;;;;4.90;3.63;;;;;;;12.40;100.00;100686.34;4993210;28;20039;-79
2023/06/28 00:03:49;;;;;;;7.07;4.13;;;;;;;12.45;100.00;100685.38;5002277;28;20104;-78
2023/06/28 00:06:16;;;;;;;4.47;3.85;;;;;;;12.40;100.00;100678.41;5001545;28;20045;-78
2023/06/28 00:08:43;;;;;;;7.10;4.45;;;;;;;12.45;100.00;100672.13;5020322;28;20043;-77
2023/06/28 00:11:10;;;;;;;7.13;3.95;;;;;;;12.46;100.00;100671.22;4994992;28;20050;-78
2023/06/28 00:13:37;;;;;;;5.47;4.07;;;;;;;12.49;100.00;100674.63;5000845;28;20747;-78
2023/06/28 00:16:04;;;;;;;5.97;4.22;;;;;;;12.53;100.00;100678.09;4961895;28;20104;-78
2023/06/28 00:18:32;;;;;;;6.68;4.40;;;;;;;12.51;100.00;100679.88;4973638;28;20086;-79
2023/06/28 00:21:01;;;;;;;7.25;4.40;;;;;;;12.45;100.00;100682.72;5000285;28;20038;-78
2023/06/28 00:23:28;;;;;;;5.97;4.35;;;;;;;12.48;100.00;100682.63;5011406;28;20046;-78
2023/06/28 00:25:55;;;;;;;8.52;4.38;;;;;;;12.44;100.00;100684.47;4987813;28;20053;-78
2023/06/28 00:28:21;;;;;;;6.13;4.18;;;;;;;12.44;100.00;100686.25;5000525;28;20120;-79
2023/06/28 00:30:48;;;;;;;5.70;4.20;;;;;;;12.42;100.00;100678.34;4965511;28;20034;-78
2023/06/28 00:33:20;;;;;;;9.35;4.80;;;;;;;12.39;100.00;100676.66;4976805;28;20137;-79
2023/06/28 00:35:48;;;;;;;7.80;4.50;;;;;;;12.41;100.00;100668.66;4979934;28;20097;-79
2023/06/28 00:38:15;;;;;;;7.93;4.70;;;;;;;12.44;100.00;100675.66;4993469;28;20154;-77
2023/06/28 00:40:41;;;;;;;7.78;4.75;;;;;;;12.45;100.00;100686.25;4998008;28;20050;-78
2023/06/28 00:43:09;;;;;;;6.50;4.25;;;;;;;12.43;100.00;100688.03;4983551;28;20649;-79
2023/06/28 00:45:36;;;;;;;6.93;4.88;;;;;;;12.38;100.00;100692.63;4993896;28;20035;-78
2023/06/28 00:48:02;;;;;;;8.05;4.30;;;;;;;12.35;100.00;100688.25;4995024;28;20042;-78
2023/06/28 00:50:29;;;;;;;7.63;4.50;;;;;;;12.32;100.00;100688.34;4993025;28;20100;-78
2023/06/28 00:52:56;;;;;;;8.10;4.20;;;;;;;12.32;100.00;100679.53;4977515;28;20101;-77
2023/06/28 00:55:23;;;;;;;7.03;4.25;;;;;;;12.26;100.00;100683.19;4973023;28;20446;-79
2023/06/28 00:57:50;;;;;;;4.78;4.13;;;;;;;12.29;100.00;100687.56;4978634;28;20050;-78
2023/06/28 01:00:17;;;;;;;6.13;4.32;;;;;;;12.27;100.00;100690.22;4976671;28;20046;-78
2023/06/28 01:02:44;;;;;;;9.02;4.60;;;;;;;12.24;100.00;100690.31;4974971;28;20065;-77
2023/06/28 01:05:13;;;;;;;6.53;4.47;;;;;;;12.26;100.00;100698.22;5008985;28;20046;-78
2023/06/28 01:07:40;;;;;;;6.88;4.38;;;;;;;12.26;100.00;100693.78;5003856;28;20049;-78
2023/06/28 01:10:08;;;;;;;10.77;5.00;;;;;;;12.30;100.00;100698.13;4975038;28;20050;-78
2023/06/28 01:12:35;;;;;;;6.80;4.78;;;;;;;12.30;100.00;100699.91;4980489;28;20054;-78
2023/06/28 01:15:03;;;;;;;5.25;4.20;;;;;;;12.41;100.00;100700.47;4970756;28;20043;-79
2023/06/28 01:17:30;;;;;;;10.82;5.13;;;;;;;12.43;100.00;100693.34;4983544;28;20141;-78
2023/06/28 01:19:57;;;;;;;6.72;5.00;;;;;;;12.36;100.00;100695.31;4982571;28;20054;-78
2023/06/28 01:22:25;;;;;;;7.75;4.93;;;;;;;12.45;100.00;100688.88;4985402;28;20130;-78
2023/06/28 01:24:52;;;;;;;7.10;4.32;;;;;;;12.41;100.00;100689.88;4992614;28;20045;-78
2023/06/28 01:27:19;;;;;;;7.53;5.00;;;;;;;12.48;100.00;100680.84;4961431;28;20568;-79
2023/06/28 01:29:47;;;;;;;9.00;4.65;;;;;;;12.49;100.00;100682.56;4997780;28;20042;-78
2023/06/28 01:32:15;;;;;;;6.63;4.53;;;;;;;12.40;100.00;100694.31;4980958;28;20089;-78
2023/06/28 01:34:42;;;;;;;8.90;4.43;;;;;;;12.48;100.00;100688.78;4981587;28;20463;-79
2023/06/28 01:37:09;;;;;;;7.50;5.05;;;;;;;12.49;100.00;100685.22;4985028;28;20136;-78
2023/06/28 01:39:36;;;;;;;6.00;4.60;;;;;;;12.54;100.00;100677.16;4975680;28;20557;-78
2023/06/28 01:42:03;;;;;;;8.30;4.20;;;;;;;12.53;100.00;100673.66;4981820;28;20556;-78
2023/06/28 01:44:31;;;;;;;8.07;4.43;;;;;;;12.53;100.00;100673.66;4988610;28;20115;-78
2023/06/28 01:46:58;;;;;;;8.07;4.93;;;;;;;12.55;100.00;100666.50;4962563;28;20061;-78
2023/06/28 01:49:25;;;;;;;8.07;4.75;;;;;;;12.55;100.00;100673.59;4998318;28;20106;-79
2023/06/28 01:51:53;;;;;;;6.57;4.60;;;;;;;12.50;100.00;100671.06;5001863;28;20046;-78
2023/06/28 01:54:20;;;;;;;7.75;4.85;;;;;;;12.47;100.00;100662.34;5001994;28;20069;-78
2023/06/28 01:56:47;;;;;;;9.35;4.68;;;;;;;12.53;100.00;100670.13;5000906;28;20620;-78
2023/06/28 01:59:14;;;;;;;7.57;4.60;;;;;;;12.50;100.00;100675.50;4979439;28;20052;-77
2023/06/28 02:01:43;;;;;;;7.55;4.70;;;;;;;12.47;100.00;100681.75;4996223;28;20061;-78
2023/06/28 02:04:10;;;;;;;6.22;4.53;;;;;;;12.49;100.00;100679.06;4992248;28;20053;-78
2023/06/28 02:06:40;;;;;;;8.50;4.75;;;;;;;12.42;100.00;100681.00;4986788;28;20048;-79
2023/06/28 02:09:07;;;;;;;7.10;4.93;;;;;;;12.41;100.00;100687.22;4961690;28;20631;-78
2023/06/28 02:11:34;;;;;;;7.53;4.90;;;;;;;12.52;100.00;100678.97;4977986;28;20050;-77
2023/06/28 02:14:01;;;;;;;8.52;5.07;;;;;;;12.51;100.00;100670.16;4998417;28;20038;-78
2023/06/28 02:16:29;;;;;;;9.77;4.68;;;;;;;12.58;100.00;100679.66;4976583;28;20038;-77
2023/06/28 02:18:57;;;;;;;9.43;5.20;;;;;;;12.61;100.00;100676.03;4976030;28;20501;-77
2023/06/28 02:21:24;;;;;;;8.57;5.28;;;;;;;12.58;100.00;100665.53;4971017;28;20599;-77
2023/06/28 02:23:51;;;;;;;7.60;5.30;;;;;;;12.65;100.00;100672.41;4999628;28;20045;-78
2023/06/28 02:26:18;;;;;;;6.82;5.22;;;;;;;12.59;100.00;100665.50;4985271;28;20037;-78
2023/06/28 02:28:44;;;;;;;8.32;4.55;;;;;;;12.55;100.00;100665.66;4984866;28;20486;-79
2023/06/28 02:31:11;;;;;;;7.18;4.15;;;;;;;12.59;100.00;100661.97;4983587;28;20037;-79
2023/06/28 02:33:38;;;;;;;8.70;4.70;;;;;;;12.60;100.00;100661.06;4963967;28;20042;-77
2023/06/28 02:36:05;;;;;;;9.43;4.97;;;;;;;12.64;100.00;100662.72;5006626;28;20041;-78
2023/06/28 02:38:31;;;;;;;8.00;4.75;;;;;;;12.67;100.00;100659.97;4974297;28;20081;-78
2023/06/28 02:40:58;;;;;;;7.15;4.55;;;;;;;12.60;100.00;100664.59;4985168;28;20521;-77
2023/06/28 02:43:25;;;;;;;7.70;4.68;;;;;;;12.56;100.00;100662.94;4979392;28;20045;-78
2023/06/28 02:45:51;;;;;;;8.45;4.68;;;;;;;12.67;100.00;100670.59;5000410;28;20049;-78
2023/06/28 02:48:18;;;;;;;5.82;4.15;;;;;;;12.62;100.00;100669.88;5002442;28;20223;-79
2023/06/28 02:50:45;;;;;;;8.20;4.50;;;;;;;12.72;100.00;100662.50;4995724;28;20038;-77
2023/06/28 02:53:11;;;;;;;8.50;4.47;;;;;;;12.67;100.00;100662.63;4977243;28;20049;-78
2023/06/28 02:55:38;;;;;;;8.45;4.53;;;;;;;12.65;100.00;100660.03;4999363;28;20418;-78
2023/06/28 02:58:05;;;;;;;6.32;4.35;;;;;;;12.62;100.00;100669.88;4979544;28;20046;-77
2023/06/28 03:00:31;;;;;;;7.47;4.60;;;;;;;12.66;100.00;100671.50;4973624;28;20065;-77
2023/06/28 03:02:58;;;;;;;6.57;5.07;;;;;;;12.66;100.00;100667.06;4983253;28;20042;-78
2023/06/28 03:05:25;;;;;;;8.43;5.10;;;;;;;12.44;100.00;100671.22;4980660;28;20042;-78
2023/06/28 03:07:52;;;;;;;9.02;4.20;;;;;;;12.59;100.00;100669.94;4999546;28;20548;-78
2023/06/28 03:10:18;;;;;;;7.13;4.75;;;;;;;12.51;100.00;100680.75;5001916;28;20046;-78
2023/06/28 03:12:45;;;;;;;10.23;4.55;;;;;;;12.53;100.00;100684.25;4973840;28;20414;-78
2023/06/28 03:15:12;;;;;;;8.63;4.50;;;;;;;12.60;100.00;100679.63;4967102;28;20054;-79
2023/06/28 03:17:38;;;;;;;7.70;4.30;;;;;;;12.59;100.00;100677.88;4979904;28;20042;-79
2023/06/28 03:20:06;;;;;;;7.22;4.80;;;;;;;12.62;100.00;100691.06;4981099;28;20084;-77
2023/06/28 03:22:32;;;;;;;8.82;4.15;;;;;;;12.62;100.00;100689.28;4988415;28;20050;-78
2023/06/28 03:25:02;;;;;;;7.70;4.45;;;;;;;12.66;100.00;100688.28;4964626;28;20049;-77
2023/06/28 03:27:29;;;;;;;8.48;4.43;;;;;;;12.76;100.00;100683.56;5004092;28;20048;-79
2023/06/28 03:29:55;;;;;;;8.25;4.50;;;;;;;12.75;100.00;100683.63;4995617;28;20060;-78
2023/06/28 03:32:22;;;;;;;10.23;4.20;;;;;;;12.81;100.00;100680.78;4979923;28;20046;-77
2023/06/28 03:34:49;;;;;;;8.23;4.28;;;;;;;12.73;100.00;100694.28;5001838;28;20038;-78
2023/06/28 03:37:16;;;;;;;8.23;4.63;;;;;;;12.75;100.00;100687.13;5008700;28;20485;-78
2023/06/28 03:39:43;;;;;;;6.68;4.15;;;;;;;12.74;100.00;100690.69;4984841;28;20133;-78
2023/06/28 03:42:09;;;;;;;6.90;4.25;;;;;;;12.77;100.00;100692.38;4983556;28;20134;-79
2023/06/28 03:44:36;;;;;;;5.63;4.10;;;;;;;12.84;100.00;100692.16;5001394;28;20041;-79
2023/06/28 03:47:03;;;;;;;8.20;5.03;;;;;;;12.81;100.00;100691.41;4986510;28;20112;-78
2023/06/28 03:49:30;;;;;;;8.30;3.92;;;;;;;12.95;100.00;100676.84;5011537;28;20050;-79
2023/06/28 03:51:56;;;;;;;7.13;4.53;;;;;;;12.99;100.00;100679.38;4995148;28;20511;-78
2023/06/28 03:54:23;;;;;;;7.20;4.15;;;;;;;13.01;100.00;100680.19;4991679;28;20065;-79
2023/06/28 03:56:50;;;;;;;7.43;4.80;;;;;;;13.07;100.00;100672.06;5006238;28;20038;-79
2023/06/28 03:59:16;;;;;;;5.88;4.53;;;;;;;13.14;100.00;100678.91;4998370;28;20042;-78
2023/06/28 04:01:43;;;;;;;5.72;4.10;;;;;;;13.12;100.00;100680.75;5003949;28;20041;-78
2023/06/28 04:04:13;;;;;;;5.40;4.07;;;;;;;13.16;100.00;100682.38;5001776;28;20046;-79
2023/06/28 04:06:40;;;;;;;7.65;4.28;;;;;;;13.16;100.00;100687.69;5005080;28;20072;-78
2023/06/28 04:09:08;;;;;;;6.65;3.78;;;;;;;13.16;100.00;100688.56;4975394;28;20138;-78
2023/06/28 04:11:35;;;;;;;9.18;4.50;;;;;;;13.19;100.00;100692.88;5008466;28;20038;-79
2023/06/28 04:14:01;;;;;;;9.32;4.13;;;;;;;13.27;100.00;100690.91;4969328;28;20046;-78
2023/06/28 04:16:28;;;;;;;7.25;4.00;;;;;;;13.30;100.00;100693.47;4984245;28;20066;-78
2023/06/28 04:18:57;;;;;;;13.45;3.97;;;;;;;13.39;100.00;100701.16;4983200;28;20105;-78
2023/06/28 04:21:23;;;;;;;8.48;3.72;;;;;;;13.42;100.00;100698.38;4997298;28;20129;-78
2023/06/28 04:23:50;;;;;;;10.95;4.45;;;;;;;13.47;100.00;100699.13;4990832;28;20042;-78
2023/06/28 04:26:19;;;;;;;7.88;3.80;;;;;;;13.59;100.00;100697.00;4982908;28;20070;-78
2023/06/28 04:28:46;;;;;;;10.13;4.80;;;;;;;13.63;100.00;100706.59;4974651;28;20047;-78
2023/06/28 04:31:13;;;;;;;9.30;3.80;;;;;;;13.66;100.00;100710.00;4981639;28;20625;-78
2023/06/28 04:33:40;;;;;;;6.13;4.00;;;;;;;13.63;100.00;100706.59;5010981;28;20049;-78
2023/06/28 04:36:07;;;;;;;5.30;3.53;;;;;;;13.71;100.00;100712.53;4976170;28;20125;-80
2023/06/28 04:38:34;;;;;;;6.13;4.00;;;;;;;13.84;100.00;100702.38;4988372;28;20053;-79
2023/06/28 04:41:00;;;;;;;5.80;4.00;;;;;;;13.90;100.00;100712.78;4998495;28;20136;-79
2023/06/28 04:43:39;;;;;;;5.68;3.38;;;;;;;13.95;100.00;100713.50;4978096;28;20031;-78
2023/06/28 04:46:11;;;;;;;8.05;3.50;;;;;;;14.04;100.00;100716.72;4992763;28;20045;-78
2023/06/28 04:48:42;;;;;;;5.70;3.50;;;;;;;14.12;100.00;100713.78;4990958;28;20050;-78
2023/06/28 04:51:09;;;;;;;6.32;4.10;;;;;;;13.95;100.00;100717.00;4976577;28;20046;-83
2023/06/28 04:53:36;;;;;;;5.47;3.60;;;;;;;14.13;100.00;100717.34;5002722;28;20042;-78
2023/06/28 04:56:03;;;;;;;4.32;3.33;;;;;;;14.11;100.00;100711.19;4997888;28;20043;-78
2023/06/28 04:58:31;;;;;;;7.50;3.42;;;;;;;14.12;100.00;100712.91;4986919;28;20039;-78
2023/06/28 05:00:58;;;;;;;7.03;4.00;;;;;;;14.09;100.00;100717.44;5001484;28;20137;-78
2023/06/28 05:03:29;;;;;;;6.53;3.75;;;;;;;14.17;100.00;100725.13;4990718;28;20128;-79
2023/06/28 05:05:56;;;;;;;5.95;3.65;;;;;;;14.21;100.00;100713.50;5006048;28;20065;-80
2023/06/28 05:08:23;;;;;;;8.63;3.60;;;;;;;14.19;100.00;100709.13;4987642;28;20042;-79
2023/06/28 05:10:49;;;;;;;7.88;3.60;;;;;;;14.08;100.00;100715.69;4996126;28;20092;-78
2023/06/28 05:13:16;;;;;;;5.65;3.05;;;;;;;14.19;100.00;100714.44;4975045;28;20041;-79
2023/06/28 05:15:43;;;;;;;7.93;3.42;;;;;;;14.31;100.00;100704.28;4988685;28;20050;-78
2023/06/28 05:18:09;;;;;;;9.57;4.47;;;;;;;14.52;100.00;100715.09;4975152;28;20069;-78
2023/06/28 05:20:36;;;;;;;7.97;4.00;;;;;;;14.95;100.00;100713.50;4982817;28;20042;-79
2023/06/28 05:23:11;;;;;;;5.35;3.33;;;;;;;15.11;100.00;100715.53;4966642;28;20130;-79
2023/06/28 05:25:39;;;;;;;8.73;3.10;;;;;;;15.29;100.00;100726.41;4976374;28;20050;-81
2023/06/28 05:28:06;;;;;;;5.05;3.22;;;;;;;15.35;100.00;100707.53;4988347;28;20038;-78
2023/06/28 05:30:33;;;;;;;6.45;3.35;;;;;;;15.41;100.00;100715.28;4999343;28;20050;-79
2023/06/28 05:33:02;;;;;;;6.57;3.30;;;;;;;15.49;100.00;100719.38;5006940;28;20082;-78
2023/06/28 05:35:34;;;;;;;4.20;3.28;;;;;;;15.61;100.00;100712.72;4994120;28;20052;-78
2023/06/28 05:38:02;;;;;;;6.50;3.42;;;;;;;15.60;100.00;100726.06;4985128;28;20038;-79
2023/06/28 05:40:29;;;;;;;5.80;3.35;;;;;;;15.92;100.00;100709.66;4965078;28;20442;-78
2023/06/28 05:42:58;;;;;;;6.95;3.97;;;;;;;16.15;100.00;100722.03;4989766;28;20458;-79
2023/06/28 05:45:26;;;;;;;7.45;2.90;;;;;;;16.96;100.00;100712.25;4975982;28;20559;-78
2023/06/28 05:47:53;;;;;;;7.93;2.30;;;;;;;19.02;99.25;100723.34;4985198;28;20051;-81
2023/06/28 05:50:28;;;;;;;4.00;2.60;;;;;;;20.07;79.49;100711.13;4965729;28;20506;-79
2023/06/28 05:52:55;;;;;;;6.93;2.28;;;;;;;20.67;75.28;100706.59;5010084;28;20126;-79
2023/06/28 05:55:22;;;;;;;4.43;2.33;;;;;;;21.55;67.31;100705.50;5003663;28;20042;-77
2023/06/28 05:57:49;;;;;;;2.47;1.70;;;;;;;21.91;65.35;100698.63;5001055;28;20048;-81
2023/06/28 06:00:16;;;;;;;3.05;2.10;;;;;;;22.58;61.98;100704.81;4976555;28;20388;-77
2023/06/28 06:02:42;;;;;;;5.28;1.98;;;;;;;22.42;59.82;100704.16;4997561;28;20046;-78
2023/06/28 06:05:13;;;;;;;5.85;2.78;;;;;;;21.70;60.44;100708.16;4988567;28;20108;-79
2023/06/28 06:07:43;;;;;;;3.15;2.10;;;;;;;21.41;66.80;100701.97;4988134;28;20042;-78
2023/06/28 06:10:09;;;;;;;4.10;2.30;;;;;;;21.08;68.61;100716.56;4986379;28;20080;-78
2023/06/28 06:12:37;;;;;;;5.30;2.80;;;;;;;20.32;68.45;100713.22;4977715;28;20394;-78
2023/06/28 06:15:05;;;;;;;9.52;2.90;;;;;;;19.65;75.14;100726.94;4997879;28;20046;-79
2023/06/28 06:17:32;;;;;;;3.30;2.30;;;;;;;19.10;78.76;100727.31;5004358;28;20497;-79
2023/06/28 06:20:00;;;;;;;6.97;2.97;;;;;;;18.85;82.01;100732.28;4988628;28;20045;-77
2023/06/28 06:22:27;;;;;;;7.13;2.45;;;;;;;18.50;85.23;100740.31;4994280;28;20037;-79
2023/06/28 06:24:54;;;;;;;5.68;2.70;;;;;;;18.04;86.12;100735.56;4983618;28;20103;-79
2023/06/28 06:27:20;;;;;;;4.07;2.38;;;;;;;17.88;91.29;100739.00;4987538;28;20076;-78
2023/06/28 06:29:49;;;;;;;5.57;2.70;;;;;;;17.66;94.34;100739.19;4991355;28;20050;-77
2023/06/28 06:32:15;;;;;;;5.90;2.92;;;;;;;17.51;92.15;100726.56;5010414;28;20046;-81
2023/06/28 06:34:42;;;;;;;7.28;3.45;;;;;;;17.32;92.17;100731.91;5010530;28;20533;-79
2023/06/28 06:37:12;;;;;;;6.90;2.80;;;;;;;17.34;93.25;100730.03;4976714;28;20048;-77
2023/06/28 06:39:40;;;;;;;7.57;3.50;;;;;;;17.39;99.33;100738.66;4991727;28;20674;-78
2023/06/28 06:42:07;;;;;;;3.88;2.30;;;;;;;17.51;94.24;100737.25;4989252;28;20053;-79
2023/06/28 06:44:34;;;;;;;7.22;3.00;;;;;;;17.78;96.98;100736.88;4988046;28;20096;-78
2023/06/28 06:47:01;;;;;;;4.32;2.53;;;;;;;18.00;98.53;100738.41;5010092;28;20034;-77
2023/06/28 06:49:28;;;;;;;4.10;2.47;;;;;;;17.95;90.76;100737.75;4985584;28;20043;-78
2023/06/28 06:51:55;;;;;;;4.05;2.50;;;;;;;17.93;92.86;100745.00;4979965;28;20066;-79
2023/06/28 06:54:21;;;;;;;3.47;2.40;;;;;;;17.93;94.23;100744.13;4983591;28;20050;-79
2023/06/28 06:56:48;;;;;;;6.32;2.90;;;;;;;17.86;93.66;100745.38;5010524;28;20124;-81
2023/06/28 06:59:16;;;;;;;9.75;2.47;;;;;;;17.93;91.01;100752.16;4984982;28;20081;-77
2023/06/28 07:01:43;;;;;;;4.72;2.67;;;;;;;17.84;88.14;100757.97;5013807;28;20042;-79
2023/06/28 07:04:10;;;;;;;4.88;2.25;;;;;;;17.79;88.35;100755.50;4990641;28;20046;-79
2023/06/28 07:06:36;;;;;;;8.10;2.63;;;;;;;17.76;87.96;100752.13;4978959;28;20038;-78
2023/06/28 07:09:03;;;;;;;6.45;2.60;;;;;;;17.77;92.41;100764.53;4996963;28;20078;-78
2023/06/28 07:11:30;;;;;;;6.72;2.63;;;;;;;17.64;87.49;100758.88;4973101;28;20046;-78
2023/06/28 07:13:57;;;;;;;6.38;2.53;;;;;;;17.53;88.96;100755.84;4982920;28;20272;-78
2023/06/28 07:16:23;;;;;;;7.25;3.03;;;;;;;17.58;93.08;100759.19;5001147;28;20141;-78
2023/06/28 07:18:50;;;;;;;5.22;2.58;;;;;;;17.53;93.12;100775.44;4998311;28;20034;-80
2023/06/28 07:21:21;;;;;;;6.07;3.00;;;;;;;17.51;93.72;100777.31;4976069;28;20092;-79
2023/06/28 07:23:48;;;;;;;6.03;2.70;;;;;;;17.30;91.22;100776.50;4987271;28;20035;-78
2023/06/28 07:26:14;;;;;;;3.35;2.13;;;;;;;17.21;94.20;100779.59;4986329;28;20461;-78
2023/06/28 07:28:41;;;;;;;6.22;2.90;;;;;;;17.07;91.98;100790.06;4984573;28;20134;-77
2023/06/28 07:31:08;;;;;;;5.25;2.25;;;;;;;17.06;94.78;100783.81;4966313;28;20070;-78
2023/06/28 07:33:35;;;;;;;8.18;3.50;;;;;;;17.00;96.47;100793.94;5014778;28;20046;-79
2023/06/28 07:36:03;;;;;;;5.78;2.83;;;;;;;17.07;96.87;100798.06;4949254;28;20517;-77
2023/06/28 07:38:30;;;;;;;5.28;2.38;;;;;;;17.14;93.65;100788.81;4962298;28;20038;-77
2023/06/28 07:40:57;;;;;;;5.78;2.67;;;;;;;17.19;95.55;100789.47;4998541;28;20567;-77
2023/06/28 07:43:24;;;;;;;4.82;2.97;;;;;;;17.32;97.32;100798.69;4975193;28;20146;-78
2023/06/28 07:45:52;;;;;;;6.68;2.72;;;;;;;17.29;92.82;100789.91;4977834;28;20047;-78
2023/06/28 07:48:19;;;;;;;5.38;2.95;;;;;;;17.31;94.89;100798.72;5000460;28;20077;-77
2023/06/28 07:50:49;;;;;;;5.35;2.50;;;;;;;17.30;96.46;100800.53;4974666;28;20609;-77
2023/06/28 07:53:15;;;;;;;4.82;2.60;;;;;;;17.24;98.60;100797.28;4982352;28;20049;-79
2023/06/28 07:55:42;;;;;;;5.57;3.17;;;;;;;17.19;96.54;100794.81;4973761;28;20039;-77
2023/06/28 07:58:09;;;;;;;3.80;2.45;;;;;;;17.29;95.73;100795.25;4982437;28;20043;-77
2023/06/28 08:00:36;;;;;;;6.47;2.60;;;;;;;17.29;95.12;100790.78;4961940;28;20129;-77
2023/06/28 08:03:03;;;;;;;15.32;9.02;;;;;;;17.32;90.49;100801.34;4989169;28;20050;-79
2023/06/28 08:05:29;;;;;;;11.18;9.68;;;;;;;17.20;92.91;100791.22;4972300;28;20046;-78
2023/06/28 08:07:56;;;;;;;5.93;3.03;;;;;;;17.14;90.67;100802.16;4950007;28;20039;-78
2023/06/28 08:10:25;;;;;;;7.93;5.55;;;;;;;17.04;93.92;100800.84;4979279;28;20066;-77
2023/06/28 08:12:54;;;;;;;8.98;7.38;;;;;;;17.11;91.50;100795.16;4977055;28;20109;-78
2023/06/28 08:15:21;;;;;;;11.82;10.23;;;;;;;17.27;95.27;100791.81;4981538;28;20066;-78
2023/06/28 08:17:48;;;;;;;6.30;4.45;;;;;;;16.88;90.39;100790.84;4987857;28;20041;-79
2023/06/28 08:20:14;;;;;;;5.43;3.20;;;;;;;17.03;89.99;100807.13;4995494;28;20547;-78
2023/06/28 08:22:41;;;;;;;7.97;2.80;;;;;;;16.96;92.92;100803.84;4997461;28;20048;-79
2023/06/28 08:25:08;;;;;;;6.15;2.97;;;;;;;17.11;96.08;100802.31;4970458;28;20056;-80
2023/06/28 08:27:35;;;;;;;5.13;2.78;;;;;;;17.13;89.84;100814.66;4974443;28;20039;-78
2023/06/28 08:30:03;;;;;;;8.15;3.58;;;;;;;17.04;93.51;100817.72;4965881;28;20035;-79
2023/06/28 08:32:32;;;;;;;5.20;2.95;;;;;;;17.27;92.92;100806.03;5008431;28;20060;-77
2023/06/28 08:34:58;;;;;;;5.47;2.90;;;;;;;17.50;94.52;100814.78;4977109;28;20038;-79
2023/06/28 08:37:25;;;;;;;5.00;2.55;;;;;;;17.70;91.02;100817.41;4977235;28;20053;-78
2023/06/28 08:39:52;;;;;;;4.32;2.75;;;;;;;17.74;90.31;100816.34;4989337;28;20045;-77
2023/06/28 08:42:18;;;;;;;5.03;2.60;;;;;;;17.84;89.81;100819.44;4968507;28;20133;-79
2023/06/28 08:44:49;;;;;;;5.90;2.97;;;;;;;17.86;86.46;100809.53;4979389;28;20467;-78
2023/06/28 08:47:16;;;;;;;3.95;2.40;;;;;;;17.95;84.87;100809.94;4969235;28;20164;-77
2023/06/28 08:49:43;;;;;;;4.57;2.85;;;;;;;18.22;86.84;100818.41;4996050;28;20042;-77
2023/06/28 08:52:10;;;;;;;4.53;2.88;;;;;;;18.30;83.51;100818.03;4996940;28;20540;-78
2023/06/28 08:54:37;;;;;;;4.88;2.92;;;;;;;18.36;82.57;100816.88;4979067;28;20050;-81
2023/06/28 08:57:04;;;;;;;4.45;2.40;;;;;;;18.51;83.56;100816.09;4979269;28;20073;-79
2023/06/28 08:59:38;;;;;;;5.63;2.50;;;;;;;18.47;77.85;100818.03;4974733;28;20042;-79
2023/06/28 09:02:08;;;;;;;5.20;2.42;;;;;;;18.63;81.69;100812.78;4988999;28;20062;-79
2023/06/28 09:04:35;;;;;;;5.15;2.70;;;;;;;18.64;78.77;100819.88;4978241;28;20042;-80
2023/06/28 09:07:03;;;;;;;6.82;2.50;;;;;;;18.57;76.77;100816.63;4983935;28;20038;-78
2023/06/28 09:09:30;;;;;;;3.83;2.83;;;;;;;18.75;82.71;100819.34;4991424;28;20049;-80
2023/06/28 09:11:57;;;;;;;5.70;2.63;;;;;;;18.65;80.36;100826.97;4976404;28;20049;-78
2023/06/28 09:14:24;;;;;;;4.82;2.70;;;;;;;18.74;77.92;100821.16;4949229;28;20505;-79
2023/06/28 09:16:51;;;;;;;6.88;3.15;;;;;;;18.87;78.18;100817.84;4981313;28;20093;-80
2023/06/28 09:19:17;;;;;;;4.43;2.47;;;;;;;18.67;72.02;100826.91;4994990;28;20034;-78
2023/06/28 09:21:45;;;;;;;4.93;2.90;;;;;;;18.82;78.43;100821.63;4999600;28;20125;-79
2023/06/28 09:24:12;;;;;;;4.13;2.30;;;;;;;18.86;78.58;100829.50;4975291;28;20080;-79
2023/06/28 09:26:43;;;;;;;5.72;2.53;;;;;;;18.80;75.96;100826.19;4991585;28;20054;-79
2023/06/28 09:29:12;;;;;;;4.65;2.25;;;;;;;18.74;77.59;100831.84;4979471;28;20038;-79
2023/06/28 09:31:47;;;;;;;3.90;2.50;;;;;;;18.90;71.96;100836.41;5010608;28;20041;-78
2023/06/28 09:34:20;;;;;;;4.45;2.47;;;;;;;18.88;76.46;100835.63;4983108;28;20046;-77
2023/06/28 09:36:51;;;;;;;4.32;2.42;;;;;;;19.00;72.82;100830.53;4977277;28;20480;-78
2023/06/28 09:39:20;;;;;;;4.22;2.72;;;;;;;19.12;74.23;100829.00;4989915;28;20117;-77
2023/06/28 09:41:48;;;;;;;3.90;2.30;;;;;;;19.24;73.78;100840.84;5006639;28;20069;-77
2023/06/28 09:44:16;;;;;;;3.45;2.30;;;;;;;19.34;72.51;100834.94;4987873;28;20077;-78
2023/06/28 09:46:47;;;;;;;3.75;2.30;;;;;;;19.29;71.41;100834.31;4998753;28;20044;-78
2023/06/28 09:49:21;;;;;;;4.05;2.40;;;;;;;19.08;70.73;100825.59;4984314;28;20081;-77
2023/06/28 09:51:58;;;;;;;4.18;2.50;;;;;;;19.20;78.23;100833.94;5002220;28;20038;-78
2023/06/28 09:54:30;;;;;;;3.13;2.42;;;;;;;19.22;74.56;100834.72;4990327;28;20056;-77
2023/06/28 09:56:58;;;;;;;3.38;2.35;;;;;;;19.22;70.38;100840.06;5004384;28;20046;-78
2023/06/28 09:59:27;;;;;;;2.88;2.00;;;;;;;19.38;72.43;100832.94;4982095;28;20522;-78
2023/06/28 10:02:05;;;;;;;4.55;2.40;;;;;;;19.58;68.79;100834.56;5011874;28;20037;-79
2023/06/28 10:04:39;;;;;;;4.80;2.38;;;;;;;19.70;72.68;100839.25;4978459;28;20100;-78
2023/06/28 10:07:06;;;;;;;4.55;2.33;;;;;;;19.88;72.26;100857.00;5000484;28;20117;-78
2023/06/28 10:09:39;;;;;;;3.53;2.13;;;;;;;19.98;72.29;100848.44;4972763;28;20061;-78
2023/06/28 10:12:13;;;;;;;2.28;2.08;;;;;;;20.03;67.65;100846.38;4987457;28;20727;-78
2023/06/28 10:14:44;;;;;;;6.65;2.58;;;;;;;20.01;66.95;100846.47;4986884;28;20049;-79
2023/06/28 10:17:11;;;;;;;3.70;2.22;;;;;;;20.00;69.99;100854.56;4997047;28;20556;-78
2023/06/28 10:19:38;;;;;;;6.95;2.55;;;;;;;20.02;68.74;100853.56;5000728;28;20049;-77
2023/06/28 10:22:05;;;;;;;3.65;2.10;;;;;;;19.59;66.12;100847.91;4976325;28;20049;-78
2023/06/28 10:24:35;;;;;;;3.80;2.30;;;;;;;19.83;67.96;100851.00;4997151;28;20535;-78
2023/06/28 10:27:03;;;;;;;8.30;2.60;;;;;;;19.68;69.71;100854.56;4978990;28;20046;-79
2023/06/28 10:29:30;;;;;;;3.30;2.17;;;;;;;19.96;74.38;100843.16;4977463;28;20042;-78
2023/06/28 10:31:57;;;;;;;3.63;2.35;;;;;;;20.11;67.18;100842.28;4996577;28;20046;-78
2023/06/28 10:34:24;;;;;;;4.13;2.30;;;;;;;20.16;69.07;100829.47;4963478;28;20461;-79
2023/06/28 10:36:51;;;;;;;3.78;2.10;;;;;;;20.09;68.94;100843.31;4995707;28;20077;-79
2023/06/28 10:39:18;;;;;;;5.07;2.70;;;;;;;19.66;69.25;100841.22;4991451;28;20072;-80
2023/06/28 10:41:44;;;;;;;2.50;1.83;;;;;;;19.90;69.34;100848.84;4989071;28;20045;-78
2023/06/28 10:44:11;;;;;;;4.10;2.42;;;;;;;20.04;65.26;100835.53;4981379;28;20046;-79
2023/06/28 10:46:40;;;;;;;4.18;2.33;;;;;;;20.18;68.32;100838.31;4993308;28;20133;-79
2023/06/28 10:49:07;;;;;;;4.88;2.28;;;;;;;20.22;65.50;100837.16;5003534;28;20030;-78
2023/06/28 10:51:35;;;;;;;2.85;2.15;;;;;;;20.16;66.72;100840.19;5000902;28;20052;-79
2023/06/28 10:54:13;;;;;;;2.97;2.20;;;;;;;20.25;67.92;100849.53;4973898;28;20564;-78
2023/06/28 10:56:50;;;;;;;4.05;2.40;;;;;;;20.31;67.04;100848.31;4993343;28;20054;-79
2023/06/28 10:59:18;;;;;;;3.70;2.58;;;;;;;20.47;71.12;100839.31;4997698;28;20390;-79
2023/06/28 11:01:55;;;;;;;4.30;2.60;;;;;;;20.63;68.95;100841.09;4979168;28;20672;-79
2023/06/28 11:04:23;;;;;;;4.07;2.10;;;;;;;20.73;64.71;100829.72;4971846;28;20070;-79
2023/06/28 11:07:02;;;;;;;3.63;2.08;;;;;;;21.02;62.55;100835.13;5006583;28;20465;-78
2023/06/28 11:09:29;;;;;;;3.40;2.55;;;;;;;21.22;60.18;100834.78;4975611;28;20464;-78
2023/06/28 11:11:58;;;;;;;3.25;1.92;;;;;;;21.19;58.08;100826.03;4963778;28;20046;-78
2023/06/28 11:14:30;;;;;;;5.45;2.65;;;;;;;21.31;58.21;100822.63;4980874;28;20731;-78
2023/06/28 11:17:02;;;;;;;5.88;2.40;;;;;;;21.52;62.37;100828.47;4998775;28;20073;-78
2023/06/28 11:19:29;;;;;;;3.47;3.03;;;;;;;21.59;56.23;100825.28;4975012;28;20043;-78
2023/06/28 11:21:57;;;;;;;3.80;2.38;;;;;;;21.54;55.18;100827.44;4999401;28;20042;-77
2023/06/28 11:24:33;;;;;;;4.93;2.10;;;;;;;21.74;60.37;100822.59;4986764;28;20043;-78